»·PEaware :: UAL385 KSLC-KBFI

UAL385 :: KSLC-KBFI

FLIGHT INFORMATION

Flight Status: Arrived
Operator:
United Airlines
More flights by this operator :: More flights under this callsign
Pilot: Anonymous 15267 (15267)
Aircraft: BOEING 737-200
(B732)
More flights by this aircraft type
Origin: KSLC Salt Lake City Intl
United States
Destination: KBFI Boeing Field/King Co Intl
United States
More flights between these airports :: More routes between these airports
Route: +SLC4 TCH J12 TWF J15 BOI J163 BKE PDT CHINS3
File this flight plan on PilotEdge
Remarks: / P
Altitude:
(Current/Filed)
3ft
Speed:
(Current/Filed)
450kts
Departed: 27-Aug-18 11:18 AM
Arrived: 27-Aug-18 01:08 PM
Distance/Time
Traveled:
600nm/1:50
Distance/Time
To Go:
Arrived

Flight Plot

Page will automatically refresh every two minutes.

Flight plan parsing failed; only flown route is shown


Map Options




Map Legend


Flown Route
Filed Route
Departure Airport
Arrival Airport
Navaid (VOR, NDB)
Fix

Horizontal Profiles

Position Reports

Time Latitude Longitude Heading Altitude Ground
Speed
27-Aug-18 10:05 40.784856 -111.978439 9 4236ft 0kts
27-Aug-18 10:06 40.784856 -111.978439 9 4236ft 0kts
27-Aug-18 10:07 40.784856 -111.978439 9 4236ft 0kts
27-Aug-18 10:08 40.784856 -111.978439 9 4236ft 0kts
27-Aug-18 10:09 40.784856 -111.978439 9 4236ft 0kts
27-Aug-18 10:10 40.784856 -111.978439 9 4236ft 0kts
27-Aug-18 10:11 40.784856 -111.978439 9 4236ft 0kts
27-Aug-18 10:12 40.784856 -111.978439 9 4236ft 0kts
27-Aug-18 10:13 40.784856 -111.978439 9 4236ft 0kts
27-Aug-18 10:14 40.784856 -111.978439 9 4236ft 0kts
27-Aug-18 10:15 40.784856 -111.978439 9 4236ft 0kts
27-Aug-18 10:16 40.784856 -111.978439 9 4236ft 0kts
27-Aug-18 10:17 40.784856 -111.978439 9 4236ft 0kts
27-Aug-18 10:18 40.784856 -111.978439 9 4236ft 0kts
27-Aug-18 10:19 40.784856 -111.978439 9 4236ft 0kts
27-Aug-18 10:20 40.784856 -111.978439 9 4236ft 0kts
27-Aug-18 10:21 40.784856 -111.978439 9 4236ft 0kts
27-Aug-18 10:22 40.784856 -111.978439 9 4236ft 0kts
27-Aug-18 10:23 40.784856 -111.978439 9 4236ft 0kts
27-Aug-18 10:24 40.784856 -111.978439 9 4236ft 0kts
27-Aug-18 10:25 40.784856 -111.978439 9 4236ft 0kts
27-Aug-18 10:26 40.784856 -111.978439 9 4236ft 0kts
27-Aug-18 10:27 40.784856 -111.978439 9 4236ft 0kts
27-Aug-18 10:28 40.784856 -111.978439 9 4236ft 0kts
27-Aug-18 10:29 40.784856 -111.978439 9 4236ft 0kts
27-Aug-18 10:30 40.784856 -111.978439 9 4236ft 0kts
27-Aug-18 10:31 40.784856 -111.978439 9 4236ft 0kts
27-Aug-18 10:32 40.784856 -111.978439 9 4236ft 0kts
27-Aug-18 10:33 40.784856 -111.978439 9 4236ft 0kts
27-Aug-18 10:34 40.784856 -111.978439 9 4236ft 0kts
27-Aug-18 10:35 40.784856 -111.978439 9 4236ft 0kts
27-Aug-18 10:36 40.784856 -111.978439 9 4236ft 0kts
27-Aug-18 10:37 40.784856 -111.978439 9 4236ft 0kts
27-Aug-18 10:38 40.784856 -111.978439 9 4236ft 0kts
27-Aug-18 10:39 40.784856 -111.978439 9 4236ft 0kts
27-Aug-18 10:40 40.784856 -111.978439 9 4236ft 0kts
27-Aug-18 10:41 40.784856 -111.978439 9 4236ft 0kts
27-Aug-18 10:42 40.784856 -111.978439 9 4236ft 0kts
27-Aug-18 10:43 40.784856 -111.978439 9 4236ft 0kts
27-Aug-18 10:44 40.784856 -111.978439 9 4236ft 0kts
27-Aug-18 10:45 40.784856 -111.978439 9 4236ft 0kts
27-Aug-18 10:46 40.784856 -111.978439 9 4236ft 0kts
27-Aug-18 10:47 40.784856 -111.978439 9 4236ft 0kts
27-Aug-18 10:48 40.784856 -111.978439 9 4236ft 0kts
27-Aug-18 10:49 40.784856 -111.978439 9 4236ft 0kts
27-Aug-18 10:50 40.784856 -111.978439 9 4236ft 0kts
27-Aug-18 10:51 40.784856 -111.978439 9 4236ft 0kts
27-Aug-18 10:52 40.784856 -111.978439 9 4236ft 0kts
27-Aug-18 10:53 40.784856 -111.978439 9 4236ft 0kts
27-Aug-18 10:54 40.784856 -111.978439 9 4236ft 0kts
27-Aug-18 10:55 40.784856 -111.978439 9 4236ft 0kts
27-Aug-18 10:56 40.784856 -111.978439 9 4236ft 0kts
27-Aug-18 10:57 40.784856 -111.978439 9 4236ft 0kts
27-Aug-18 10:58 40.784856 -111.978439 9 4236ft 0kts
27-Aug-18 10:59 40.784856 -111.978439 9 4236ft 0kts
27-Aug-18 11:00 40.784856 -111.978439 9 4236ft 0kts
27-Aug-18 11:01 40.784856 -111.978439 9 4236ft 0kts
27-Aug-18 11:02 40.784856 -111.978439 9 4236ft 0kts
27-Aug-18 11:03 40.784856 -111.978439 9 4236ft 0kts
27-Aug-18 11:04 40.784718 -111.978442 355 4236ft 2kts
27-Aug-18 11:05 40.784120 -111.978442 0 4236ft 1kts
27-Aug-18 11:06 40.784061 -111.977872 84 4236ft 7kts
27-Aug-18 11:07 40.784105 -111.977199 85 4236ft 0kts
27-Aug-18 11:08 40.784105 -111.977199 85 4236ft 0kts
27-Aug-18 11:09 40.784105 -111.977199 85 4236ft 0kts
27-Aug-18 11:10 40.784105 -111.977199 85 4236ft 0kts
27-Aug-18 11:11 40.784105 -111.977199 85 4236ft 0kts
27-Aug-18 11:12 40.784105 -111.977199 85 4236ft 0kts
27-Aug-18 11:13 40.784108 -111.976719 110 4236ft 9kts
27-Aug-18 11:14 40.779142 -111.975629 153 4236ft 19kts
27-Aug-18 11:15 40.775117 -111.974848 172 4236ft 6kts
27-Aug-18 11:16 40.774787 -111.974791 172 4236ft 0kts
27-Aug-18 11:17 40.774787 -111.974791 172 4236ft 0kts
27-Aug-18 11:18 40.774865 -111.973535 31 4236ft 15kts
27-Aug-18 11:19 40.797665 -111.975784 355 4323ft 167kts
27-Aug-18 11:20 40.825716 -112.014245 271 5809ft 225kts
27-Aug-18 11:21 40.824975 -112.102592 271 8762ft 243kts
27-Aug-18 11:22 40.870139 -112.166232 331 10851ft 287kts
27-Aug-18 11:23 40.943627 -112.210976 331 13510ft 298kts
27-Aug-18 11:24 41.024966 -112.260055 330 15184ft 334kts
27-Aug-18 11:25 41.091266 -112.339850 309 17588ft 325kts
27-Aug-18 11:26 41.151567 -112.427227 308 19614ft 327kts
27-Aug-18 11:27 41.212406 -112.517209 308 21293ft 332kts
27-Aug-18 11:28 41.273647 -112.608732 306 22799ft 336kts
27-Aug-18 11:29 41.335221 -112.702196 306 24175ft 340kts
27-Aug-18 11:30 41.397862 -112.797057 307 25419ft 344kts
27-Aug-18 11:31 41.461875 -112.893704 306 26450ft 351kts
27-Aug-18 11:32 41.526528 -112.990927 305 27412ft 355kts
27-Aug-18 11:33 41.590761 -113.090671 305 28304ft 359kts
27-Aug-18 11:34 41.655958 -113.191097 305 29108ft 362kts
27-Aug-18 11:35 41.721761 -113.292645 305 29820ft 365kts
27-Aug-18 11:36 41.787174 -113.393872 305 30766ft 359kts
27-Aug-18 11:37 41.852612 -113.495535 305 31316ft 362kts
27-Aug-18 11:38 41.918077 -113.597516 305 31892ft 362kts
27-Aug-18 11:39 41.984328 -113.701141 305 32044ft 374kts
27-Aug-18 11:40 42.053115 -113.809031 305 32041ft 387kts
27-Aug-18 11:41 42.123283 -113.919482 305 32042ft 398kts
27-Aug-18 11:42 42.195962 -114.034294 305 32042ft 407kts
27-Aug-18 11:43 42.268439 -114.149158 305 32042ft 391kts
27-Aug-18 11:44 42.336869 -114.258059 305 32055ft 373kts
27-Aug-18 11:45 42.402748 -114.363286 305 32056ft 362kts
27-Aug-18 11:46 42.467202 -114.466582 305 32055ft 358kts
27-Aug-18 11:47 42.532554 -114.567400 306 32054ft 355kts
27-Aug-18 11:48 42.597525 -114.667551 305 32067ft 356kts
27-Aug-18 11:49 42.663209 -114.769096 305 32063ft 361kts
27-Aug-18 11:50 42.729543 -114.871999 305 32058ft 366kts
27-Aug-18 11:51 42.796900 -114.976861 305 32055ft 370kts
27-Aug-18 11:52 42.864869 -115.083088 306 32052ft 373kts
27-Aug-18 11:53 42.932913 -115.189826 306 32053ft 375kts
27-Aug-18 11:54 43.001249 -115.297391 307 32049ft 374kts
27-Aug-18 11:55 43.068826 -115.404131 307 32042ft 369kts
27-Aug-18 11:56 43.129807 -115.500759 307 32047ft 363kts
27-Aug-18 11:57 43.195115 -115.604633 307 32046ft 357kts
27-Aug-18 11:58 43.258838 -115.706394 307 32060ft 352kts
27-Aug-18 11:59 43.322329 -115.808113 307 32058ft 349kts
27-Aug-18 12:00 43.384855 -115.908626 307 32056ft 347kts
27-Aug-18 12:01 43.446694 -116.008362 306 32049ft 344kts
27-Aug-18 12:02 43.508505 -116.108450 306 32044ft 342kts
27-Aug-18 12:03 43.573299 -116.203496 313 32044ft 343kts
27-Aug-18 12:04 43.644012 -116.290779 313 32044ft 341kts
27-Aug-18 12:05 43.714335 -116.377091 313 32046ft 338kts
27-Aug-18 12:06 43.784326 -116.463162 313 32045ft 336kts
27-Aug-18 12:07 43.853698 -116.548756 313 32045ft 337kts
27-Aug-18 12:08 43.923967 -116.635735 313 32043ft 341kts
27-Aug-18 12:09 43.995023 -116.723978 313 32059ft 346kts
27-Aug-18 12:10 44.066928 -116.813550 313 32061ft 351kts
27-Aug-18 12:11 44.139416 -116.904207 313 32068ft 355kts
27-Aug-18 12:12 44.213288 -116.996932 314 32066ft 360kts
27-Aug-18 12:13 44.287777 -117.090707 314 32064ft 364kts
27-Aug-18 12:14 44.363078 -117.185831 315 32065ft 369kts
27-Aug-18 12:15 44.439295 -117.282490 314 32074ft 372kts
27-Aug-18 12:16 44.515828 -117.379911 315 32088ft 375kts
27-Aug-18 12:17 44.592677 -117.478108 315 32086ft 377kts
27-Aug-18 12:18 44.669605 -117.576783 315 32084ft 378kts
27-Aug-18 12:19 44.746941 -117.676361 314 32094ft 380kts
27-Aug-18 12:20 44.824362 -117.776407 314 32090ft 381kts
27-Aug-18 12:21 44.897786 -117.881223 311 32089ft 379kts
27-Aug-18 12:22 44.970056 -117.986455 312 32087ft 378kts
27-Aug-18 12:23 45.042671 -118.092727 313 32087ft 376kts
27-Aug-18 12:24 45.114815 -118.198618 315 32104ft 374kts
27-Aug-18 12:25 45.186095 -118.303506 315 32103ft 374kts
27-Aug-18 12:26 45.257945 -118.409746 315 32099ft 374kts
27-Aug-18 12:27 45.329307 -118.515700 315 32093ft 374kts
27-Aug-18 12:28 45.400409 -118.621687 315 32088ft 374kts
27-Aug-18 12:29 45.475194 -118.720644 324 32105ft 372kts
27-Aug-18 12:30 45.560013 -118.805318 325 32092ft 373kts
27-Aug-18 12:31 45.645427 -118.887985 325 32109ft 372kts
27-Aug-18 12:32 45.712399 -118.995683 308 32107ft 375kts
27-Aug-18 12:33 45.786685 -119.094638 314 32095ft 372kts
27-Aug-18 12:34 45.853364 -119.205622 312 32094ft 372kts
27-Aug-18 12:35 45.919195 -119.318374 312 32090ft 372kts
27-Aug-18 12:36 45.984083 -119.430657 312 32086ft 371kts
27-Aug-18 12:37 46.048980 -119.543501 312 32081ft 370kts
27-Aug-18 12:38 46.113989 -119.656176 311 32094ft 369kts
27-Aug-18 12:39 46.178724 -119.770151 312 31087ft 372kts
27-Aug-18 12:40 46.237922 -119.888749 322 30113ft 365kts
27-Aug-18 12:41 46.310392 -119.989245 314 29249ft 363kts
27-Aug-18 12:42 46.375390 -120.098050 313 27892ft 359kts
27-Aug-18 12:43 46.437415 -120.206813 312 26444ft 353kts
27-Aug-18 12:44 46.498128 -120.314782 312 24566ft 350kts
27-Aug-18 12:45 46.558122 -120.422348 312 24102ft 346kts
27-Aug-18 12:46 46.614215 -120.534309 309 24098ft 348kts
27-Aug-18 12:47 46.668986 -120.648785 309 24092ft 348kts
27-Aug-18 12:48 46.716822 -120.751294 308 24086ft 342kts
27-Aug-18 12:49 46.768724 -120.860915 309 22306ft 341kts
27-Aug-18 12:50 46.821687 -120.972680 308 20119ft 335kts
27-Aug-18 12:51 46.874217 -121.083942 308 17813ft 336kts
27-Aug-18 12:52 46.927730 -121.197608 308 15166ft 345kts
27-Aug-18 12:53 46.980734 -121.310959 308 13119ft 338kts
27-Aug-18 12:54 47.032820 -121.422734 307 11421ft 331kts
27-Aug-18 12:55 47.073402 -121.509945 307 10977ft 289kts
27-Aug-18 12:56 47.111567 -121.631551 295 9726ft 287kts
27-Aug-18 12:57 47.136071 -121.720344 294 8756ft 283kts
27-Aug-18 12:58 47.170010 -121.840919 295 7443ft 278kts
27-Aug-18 12:59 47.199932 -121.944055 295 6317ft 274kts
27-Aug-18 13:00 47.228227 -122.024648 305 5632ft 256kts
27-Aug-18 13:01 47.283436 -122.094395 330 4651ft 223kts
27-Aug-18 13:02 47.324815 -122.129557 331 3794ft 203kts
27-Aug-18 13:03 47.369779 -122.167400 331 2861ft 172kts
27-Aug-18 13:04 47.410409 -122.201524 331 2547ft 168kts
27-Aug-18 13:05 47.444745 -122.230480 331 1734ft 129kts
27-Aug-18 13:06 47.477611 -122.258447 330 967ft 137kts
27-Aug-18 13:07 47.509941 -122.285572 331 308ft 134kts
27-Aug-18 13:08 47.535684 -122.307295 330 27ft 61kts
27-Aug-18 13:09 47.537848 -122.306493 133 27ft 7kts
27-Aug-18 13:10 47.534747 -122.303503 150 27ft 22kts
27-Aug-18 13:11 47.532414 -122.300461 57 27ft 0kts
27-Aug-18 13:12 47.532414 -122.300461 57 27ft 0kts
27-Aug-18 13:13 47.532414 -122.300461 57 27ft 0kts

Navigation Log

Ident Type
Flight plan parsing failed, navigation log unavailable